< < Back
Terminal Aerodrome Forecast


Current Version              Previous Versions:   1  2  3  4  5  6  7  8  9  

Terminal Aerodrome Forecast

637
FTUS42 KTAE 310500
TAFABY
TAF
KABY 310537Z 3106/0106 00000KT 6SM BR SCT070 OVC100
      TEMPO 3106/3110 3SM BR SCT002
     FM311600 16005KT P6SM VCTS SCT040CB
     FM010000 VRB02KT P6SM BKN250=

Latest METAR

974
SAUS70 KWBC 310556
MTRABY
METAR KABY 310553Z 09004KT 10SM CLR 23/23 A3014 RMK AO2 RAE11 SLP204
6//// T02330228 10283 20233 58005 PNO $


USA.gov is the U.S. government's official web portal to all federal, state and local government web resources and services.